createdAt,value
2023-01-01T00:01:54.980Z,33.40
2023-01-01T00:04:22.943Z,30.73
2023-01-01T00:06:50.828Z,31.77
2023-01-01T00:09:36.433Z,33.78
2023-01-01T00:12:04.841Z,38.38
2023-01-01T00:14:32.782Z,34.53
2023-01-01T00:17:01.945Z,33.75
2023-01-01T00:19:29.949Z,27.85
2023-01-01T00:21:57.870Z,26.27
2023-01-01T00:24:25.900Z,33.50
2023-01-01T00:26:53.861Z,33.78
2023-01-01T00:29:21.750Z,24.65
2023-01-01T00:31:49.733Z,33.25
2023-01-01T00:34:18.959Z,29.27
2023-01-01T00:36:46.801Z,31.25
2023-01-01T00:39:14.653Z,31.15
2023-01-01T00:41:42.509Z,27.15
2023-01-01T00:44:10.443Z,25.20
2023-01-01T00:46:38.383Z,34.80
2023-01-01T00:49:06.329Z,33.05
2023-01-01T00:51:37.263Z,36.78
2023-01-01T00:54:05.611Z,38.17
2023-01-01T00:56:33.907Z,30.85
2023-01-01T00:59:02.041Z,27.58
2023-01-01T01:01:30.193Z,29.67
2023-01-01T01:03:58.440Z,34.17
2023-01-01T01:06:26.270Z,40.05
2023-01-01T01:08:55.434Z,36.90
2023-01-01T01:11:25.432Z,38.53
2023-01-01T01:13:56.126Z,35.38
2023-01-01T01:16:27.606Z,38.90
2023-01-01T01:18:59.520Z,42.83
2023-01-01T01:21:29.769Z,44.83
2023-01-01T01:23:59.994Z,53.78
2023-01-01T01:26:30.407Z,65.15
2023-01-01T01:28:58.742Z,60.28
2023-01-01T01:31:30.056Z,56.97
2023-01-01T01:33:58.547Z,58.28
2023-01-01T01:36:27.689Z,52.72
2023-01-01T01:38:55.828Z,57.70
2023-01-01T01:41:28.770Z,54.45
2023-01-01T01:43:59.849Z,63.53
2023-01-01T01:46:34.859Z,60.15
2023-01-01T01:49:06.301Z,56.67
2023-01-01T01:51:40.236Z,52.78
2023-01-01T01:54:13.946Z,66.15
2023-01-01T01:56:48.098Z,60.22
2023-01-01T01:59:17.136Z,53.63
2023-01-01T02:01:45.264Z,66.00
2023-01-01T02:04:13.695Z,68.57
2023-01-01T02:06:42.149Z,73.88
2023-01-01T02:09:10.388Z,62.45
2023-01-01T02:11:38.903Z,55.63
2023-01-01T02:14:08.628Z,67.20
2023-01-01T02:16:43.402Z,69.13
2023-01-01T02:19:19.777Z,66.25
2023-01-01T02:21:59.632Z,77.30
2023-01-01T02:24:46.722Z,74.47
2023-01-01T02:27:22.380Z,69.30
2023-01-01T02:29:55.250Z,66.63
2023-01-01T02:32:28.111Z,72.32
2023-01-01T02:35:21.911Z,57.92
2023-01-01T02:37:53.458Z,62.78
2023-01-01T02:40:24.818Z,67.53
2023-01-01T02:42:54.732Z,62.80
2023-01-01T02:45:24.221Z,58.78
2023-01-01T02:47:52.306Z,62.08
2023-01-01T02:50:23.490Z,60.15
2023-01-01T02:53:07.552Z,54.75
2023-01-01T02:55:46.939Z,68.93
2023-01-01T02:58:38.321Z,57.60
2023-01-01T03:01:14.462Z,69.57
2023-01-01T03:03:50.680Z,60.28
2023-01-01T03:06:29.484Z,53.78
2023-01-01T03:09:12.127Z,61.00
2023-01-01T03:11:50.016Z,59.22
2023-01-01T03:14:25.327Z,65.82
2023-01-01T03:17:01.415Z,68.32
2023-01-01T03:19:35.896Z,60.17
2023-01-01T03:22:09.349Z,55.05
2023-01-01T03:24:41.081Z,46.75
2023-01-01T03:27:12.365Z,55.83
2023-01-01T03:29:42.714Z,33.45
2023-01-01T03:32:17.237Z,40.95
2023-01-01T03:34:50.627Z,34.28
2023-01-01T03:37:24.423Z,40.85
2023-01-01T03:39:56.160Z,37.42
2023-01-01T03:42:29.465Z,37.88
2023-01-01T03:45:04.029Z,31.27
2023-01-01T03:47:34.037Z,30.10
2023-01-01T03:50:03.712Z,24.35
2023-01-01T03:52:40.504Z,36.47
2023-01-01T03:55:13.445Z,19.75
2023-01-01T03:57:46.712Z,22.92
2023-01-01T04:00:18.013Z,21.25
2023-01-01T04:02:54.166Z,20.48
2023-01-01T04:05:22.976Z,25.08
2023-01-01T04:07:52.744Z,24.15
2023-01-01T04:10:21.433Z,18.17
2023-01-01T04:12:51.539Z,26.17
2023-01-01T04:15:21.437Z,16.08
2023-01-01T04:17:51.188Z,21.80
2023-01-01T04:20:19.225Z,16.63
2023-01-01T04:22:47.680Z,20.13
2023-01-01T04:25:17.395Z,15.68
2023-01-01T04:27:46.043Z,19.70
2023-01-01T04:30:15.453Z,15.00
2023-01-01T04:32:43.979Z,13.90
2023-01-01T04:35:14.516Z,13.95
2023-01-01T04:37:44.356Z,20.90
2023-01-01T04:40:14.034Z,19.83
2023-01-01T04:42:42.043Z,22.98
2023-01-01T04:45:12.352Z,26.52
2023-01-01T04:47:41.451Z,23.60
2023-01-01T04:50:10.286Z,21.10
2023-01-01T04:52:39.451Z,25.10
2023-01-01T04:55:08.265Z,21.40
2023-01-01T04:57:36.673Z,23.58
2023-01-01T05:00:05.805Z,28.10
2023-01-01T05:02:33.741Z,24.48
2023-01-01T05:05:01.716Z,25.90
2023-01-01T05:07:29.524Z,21.05
2023-01-01T05:09:58.863Z,28.58
2023-01-01T05:12:26.655Z,14.77
2023-01-01T05:14:54.579Z,24.05
2023-01-01T05:17:22.424Z,18.83
2023-01-01T05:19:50.311Z,18.05
2023-01-01T05:22:18.177Z,16.05
2023-01-01T05:24:46.277Z,16.92
2023-01-01T05:27:15.706Z,18.40
2023-01-01T05:29:43.608Z,19.77
2023-01-01T05:37:05.616Z,16.08
2023-01-01T05:39:33.567Z,11.27
2023-01-01T05:42:01.454Z,13.70
2023-01-01T05:44:30.745Z,10.60
2023-01-01T05:46:59.610Z,10.95
2023-01-01T05:49:28.337Z,14.52
2023-01-01T05:51:56.466Z,13.93
2023-01-01T05:54:24.337Z,16.58
2023-01-01T05:56:52.170Z,17.90
2023-01-01T05:59:20.113Z,12.90
2023-01-01T06:01:49.500Z,13.50
2023-01-01T06:04:17.613Z,12.30
2023-01-01T06:06:45.556Z,19.00
2023-01-01T06:09:13.421Z,8.85
2023-01-01T06:11:41.458Z,12.25
2023-01-01T06:14:09.692Z,13.05
2023-01-01T06:16:37.745Z,8.77
2023-01-01T06:19:07.223Z,13.23
2023-01-01T06:21:35.281Z,18.73
2023-01-01T06:24:03.231Z,17.67
2023-01-01T06:26:32.731Z,7.97
2023-01-01T06:29:02.867Z,18.45
2023-01-01T06:31:36.800Z,11.07
2023-01-01T06:34:09.871Z,16.30
2023-01-01T06:36:38.100Z,12.80
2023-01-01T06:39:07.367Z,16.02
2023-01-01T06:41:36.345Z,11.50
2023-01-01T06:44:04.760Z,16.48
2023-01-01T06:46:34.174Z,13.27
2023-01-01T06:49:04.771Z,16.10
2023-01-01T06:51:37.512Z,13.90
2023-01-01T06:54:06.728Z,15.10
2023-01-01T06:56:35.128Z,11.07
2023-01-01T06:59:05.280Z,16.90
2023-01-01T07:01:35.744Z,23.85
2023-01-01T07:04:05.860Z,7.60
2023-01-01T07:06:36.253Z,13.25
2023-01-01T07:09:04.591Z,12.07
2023-01-01T07:11:33.060Z,17.30
2023-01-01T07:14:02.580Z,18.90
2023-01-01T07:16:30.532Z,20.02
2023-01-01T07:18:58.612Z,19.25
2023-01-01T07:21:31.197Z,21.30
2023-01-01T07:24:02.375Z,17.83
2023-01-01T07:26:31.897Z,13.65
2023-01-01T07:29:07.030Z,21.40
2023-01-01T07:31:36.903Z,21.48
2023-01-01T07:34:04.990Z,17.27
2023-01-01T07:36:33.001Z,26.23
2023-01-01T07:39:02.180Z,15.75
2023-01-01T07:41:30.146Z,25.50
2023-01-01T07:44:00.229Z,21.83
2023-01-01T07:46:28.328Z,29.88
2023-01-01T07:48:56.544Z,25.10
2023-01-01T07:51:24.489Z,34.67
2023-01-01T07:53:53.483Z,16.67
2023-01-01T07:56:22.969Z,25.45
2023-01-01T07:58:50.941Z,24.27
2023-01-01T08:01:19.222Z,25.98
2023-01-01T08:03:52.702Z,32.42
2023-01-01T08:06:22.266Z,30.60
2023-01-01T08:08:50.322Z,29.65
2023-01-01T08:11:18.388Z,26.25
2023-01-01T08:13:48.034Z,24.45
2023-01-01T08:16:15.976Z,25.08
2023-01-01T08:18:44.157Z,19.73
2023-01-01T08:21:12.199Z,30.02
2023-01-01T08:23:40.034Z,20.17
2023-01-01T08:26:07.963Z,33.42
2023-01-01T08:28:36.821Z,25.83
2023-01-01T08:31:06.654Z,40.50
2023-01-01T08:33:34.708Z,19.63
2023-01-01T08:36:02.727Z,32.17
2023-01-01T08:38:30.659Z,28.33
2023-01-01T08:40:58.575Z,33.85
2023-01-01T08:43:26.546Z,21.10
2023-01-01T08:45:54.538Z,32.10
2023-01-01T08:48:30.577Z,36.03
2023-01-01T08:51:01.064Z,35.75
2023-01-01T08:53:29.917Z,33.67
2023-01-01T08:55:59.291Z,32.65
2023-01-01T08:58:28.462Z,22.08
2023-01-01T09:00:56.761Z,31.95
2023-01-01T09:03:26.516Z,34.13
2023-01-01T09:05:54.753Z,26.83
2023-01-01T09:08:24.129Z,29.48
2023-01-01T09:10:52.943Z,43.17
2023-01-01T09:13:22.211Z,27.25
2023-01-01T09:15:50.338Z,35.88
2023-01-01T09:18:18.553Z,35.85
2023-01-01T09:20:48.420Z,34.40
2023-01-01T09:23:16.457Z,33.22
2023-01-01T09:25:44.504Z,23.27
2023-01-01T09:28:15.842Z,28.75
2023-01-01T09:30:47.268Z,34.70
2023-01-01T09:33:15.277Z,26.30
2023-01-01T09:35:44.510Z,30.27
2023-01-01T09:38:13.850Z,29.95
2023-01-01T09:40:53.003Z,33.88
2023-01-01T09:43:32.184Z,33.28
2023-01-01T09:46:02.586Z,27.55
2023-01-01T09:48:32.556Z,49.00
2023-01-01T09:51:04.639Z,34.15
2023-01-01T09:53:38.819Z,33.60
2023-01-01T09:56:07.810Z,27.73
2023-01-01T09:58:42.893Z,34.72
2023-01-01T10:01:21.296Z,32.95
2023-01-01T10:03:58.438Z,24.50
2023-01-01T10:06:30.838Z,32.38
2023-01-01T10:09:12.318Z,29.00
2023-01-01T10:11:46.487Z,32.88
2023-01-01T10:14:19.900Z,28.52
2023-01-01T10:16:52.544Z,40.33
2023-01-01T10:19:29.037Z,40.22
2023-01-01T10:22:04.742Z,39.92
2023-01-01T10:24:42.431Z,33.55
2023-01-01T10:27:18.882Z,29.27
2023-01-01T10:29:51.350Z,26.63
2023-01-01T10:32:22.252Z,23.58
2023-01-01T10:34:51.812Z,31.70
2023-01-01T10:37:20.259Z,21.48
2023-01-01T10:39:49.912Z,26.42
2023-01-01T10:42:18.029Z,27.70
2023-01-01T10:44:46.311Z,25.42
2023-01-01T10:47:35.327Z,28.13
2023-01-01T10:50:07.807Z,32.03
2023-01-01T10:52:38.337Z,28.03
2023-01-01T10:55:20.742Z,33.97
2023-01-01T10:57:48.817Z,28.40
2023-01-01T11:00:25.696Z,29.23
2023-01-01T11:03:21.814Z,24.48
2023-01-01T11:06:19.885Z,26.63
2023-01-01T11:08:50.867Z,28.60
2023-01-01T11:11:26.530Z,26.42
2023-01-01T11:13:57.406Z,26.65
2023-01-01T11:16:26.937Z,26.92
2023-01-01T11:19:06.234Z,28.77
2023-01-01T11:21:35.956Z,17.05
2023-01-01T11:24:22.345Z,17.42
2023-01-01T11:26:55.181Z,24.20
2023-01-01T11:29:28.962Z,20.50
2023-01-01T11:32:00.912Z,22.42
2023-01-01T11:34:32.375Z,24.77
2023-01-01T11:37:13.365Z,15.27
2023-01-01T11:39:44.217Z,24.67
2023-01-01T11:42:20.729Z,25.52
2023-01-01T11:44:54.240Z,22.70
2023-01-01T11:47:28.820Z,27.83
2023-01-01T11:50:01.507Z,27.80
2023-01-01T11:52:36.194Z,20.80
2023-01-01T11:55:15.879Z,20.80
2023-01-01T11:57:52.391Z,23.13
2023-01-01T12:00:20.443Z,18.20
2023-01-01T12:02:54.463Z,20.60
2023-01-01T12:05:25.616Z,21.40
2023-01-01T12:07:55.696Z,23.05
2023-01-01T12:10:26.058Z,23.85
2023-01-01T12:13:02.965Z,25.35
2023-01-01T12:15:38.240Z,22.50
2023-01-01T12:18:14.330Z,24.10
2023-01-01T12:20:49.906Z,21.33
2023-01-01T12:23:20.137Z,22.83
2023-01-01T12:25:54.882Z,33.00
2023-01-01T12:28:35.155Z,17.13
2023-01-01T12:31:14.060Z,19.38
2023-01-01T12:33:59.829Z,15.65
2023-01-01T12:36:41.240Z,23.05
2023-01-01T12:39:56.223Z,27.83
2023-01-01T12:42:34.284Z,17.48
2023-01-01T12:45:31.093Z,22.88
2023-01-01T12:48:08.605Z,32.95
2023-01-01T12:50:55.109Z,18.15
2023-01-01T12:53:35.584Z,22.67
2023-01-01T12:56:23.362Z,20.63
2023-01-01T12:58:56.790Z,25.75
2023-01-01T13:01:33.146Z,22.77
2023-01-01T13:04:05.318Z,34.95
2023-01-01T13:06:40.619Z,23.58
2023-01-01T13:09:14.519Z,31.33
2023-01-01T13:11:45.583Z,30.42
2023-01-01T13:14:14.379Z,25.23
2023-01-01T13:16:48.951Z,27.65
2023-01-01T13:19:26.583Z,17.27
2023-01-01T13:21:54.905Z,19.70
2023-01-01T13:24:25.465Z,16.40
2023-01-01T13:26:54.615Z,20.70
2023-01-01T13:29:47.310Z,21.50
2023-01-01T13:32:18.191Z,22.05
2023-01-01T13:35:15.998Z,29.55
2023-01-01T13:37:48.577Z,20.17
2023-01-01T13:40:53.353Z,14.77
2023-01-01T13:43:28.009Z,25.02
2023-01-01T13:46:13.842Z,26.00
2023-01-01T13:49:27.291Z,25.88
2023-01-01T13:52:15.504Z,15.27
2023-01-01T13:55:28.543Z,17.65
2023-01-01T13:58:25.484Z,20.75
2023-01-01T14:01:14.661Z,14.10
2023-01-01T14:03:46.626Z,21.15
2023-01-01T14:06:22.143Z,20.15
2023-01-01T14:09:03.591Z,21.15
2023-01-01T14:11:31.792Z,19.90
2023-01-01T14:13:59.938Z,19.88
2023-01-01T14:16:29.525Z,20.45
2023-01-01T14:19:00.823Z,24.23
2023-01-01T14:21:32.861Z,25.67
2023-01-01T14:24:06.081Z,22.95
2023-01-01T14:26:38.534Z,28.67
2023-01-01T14:29:09.233Z,16.80
2023-01-01T14:31:41.524Z,30.05
2023-01-01T14:34:17.338Z,23.45
2023-01-01T14:36:53.139Z,30.95
2023-01-01T14:39:30.306Z,23.25
2023-01-01T14:42:01.886Z,23.13
2023-01-01T14:44:35.882Z,37.58
2023-01-01T14:47:05.942Z,32.45
2023-01-01T14:49:38.121Z,22.30
2023-01-01T14:52:10.462Z,23.30
2023-01-01T14:54:43.245Z,23.05
2023-01-01T14:57:13.695Z,26.10
2023-01-01T14:59:48.336Z,23.83
2023-01-01T15:02:18.409Z,21.25
2023-01-01T15:04:46.520Z,24.02
2023-01-01T15:07:21.720Z,16.92
2023-01-01T15:09:52.035Z,30.23
2023-01-01T15:12:20.979Z,19.77
2023-01-01T15:14:50.701Z,29.75
2023-01-01T15:17:21.170Z,15.48
2023-01-01T15:20:02.756Z,25.75
2023-01-01T15:22:35.209Z,23.92
2023-01-01T15:25:06.683Z,25.73
2023-01-01T15:27:37.852Z,31.30
2023-01-01T15:30:13.778Z,30.50
2023-01-01T15:32:43.051Z,25.90
2023-01-01T15:35:27.850Z,23.27
2023-01-01T15:38:02.268Z,27.08
2023-01-01T15:40:36.335Z,30.80
2023-01-01T15:43:19.708Z,30.60
2023-01-01T15:45:56.895Z,23.15
2023-01-01T15:48:32.321Z,21.33
2023-01-01T15:51:14.114Z,21.20
2023-01-01T15:53:50.398Z,33.50
2023-01-01T15:56:21.248Z,22.92
2023-01-01T15:58:56.231Z,25.40
2023-01-01T16:01:28.915Z,19.52
2023-01-01T16:04:04.336Z,20.83
2023-01-01T16:06:32.715Z,24.58
2023-01-01T16:09:00.739Z,28.00
2023-01-01T16:11:30.350Z,25.25
2023-01-01T16:13:58.378Z,26.55
2023-01-01T16:16:29.255Z,33.03
2023-01-01T16:18:58.421Z,22.33
2023-01-01T16:21:28.884Z,22.77
2023-01-01T16:23:58.414Z,30.00
2023-01-01T16:26:26.723Z,29.42
2023-01-01T16:28:56.252Z,29.55
2023-01-01T16:31:28.566Z,23.80
2023-01-01T16:33:59.056Z,21.75
2023-01-01T16:36:29.155Z,27.42
2023-01-01T16:38:57.806Z,29.88
2023-01-01T16:41:28.773Z,22.08
2023-01-01T16:43:59.077Z,20.45
2023-01-01T16:46:28.086Z,28.63
2023-01-01T16:48:56.177Z,20.88
2023-01-01T16:51:30.713Z,16.70
2023-01-01T16:54:00.852Z,24.42
2023-01-01T16:56:29.212Z,19.20
2023-01-01T16:59:03.300Z,23.45
2023-01-01T17:01:32.866Z,26.90
2023-01-01T17:04:01.353Z,19.13
2023-01-01T17:06:30.621Z,22.70
2023-01-01T17:09:00.105Z,26.13
2023-01-01T17:11:28.822Z,21.92
2023-01-01T17:13:59.661Z,27.45
2023-01-01T17:16:34.618Z,20.00
2023-01-01T17:19:16.276Z,23.10
2023-01-01T17:21:48.876Z,20.88
2023-01-01T17:24:17.573Z,24.45
2023-01-01T17:26:46.107Z,32.92
2023-01-01T17:29:15.942Z,22.35
2023-01-01T17:31:44.333Z,21.90
2023-01-01T17:34:14.443Z,24.88
2023-01-01T17:36:44.344Z,22.25
2023-01-01T17:39:12.915Z,23.52
2023-01-01T17:41:42.733Z,24.00
2023-01-01T17:44:12.178Z,31.35
2023-01-01T17:46:44.175Z,28.98
2023-01-01T17:49:12.486Z,27.75
2023-01-01T17:51:40.359Z,27.67
2023-01-01T17:54:11.750Z,24.55
2023-01-01T17:56:39.668Z,18.77
2023-01-01T17:59:07.699Z,23.83
2023-01-01T18:01:35.898Z,26.48
2023-01-01T18:04:07.573Z,17.33
2023-01-01T18:06:41.351Z,30.98
2023-01-01T18:09:12.674Z,20.20
2023-01-01T18:11:41.375Z,29.85
2023-01-01T18:14:10.128Z,21.90
2023-01-01T18:16:39.962Z,23.90
2023-01-01T18:19:09.381Z,30.83
2023-01-01T18:21:37.496Z,24.00
2023-01-01T18:24:12.277Z,21.48
2023-01-01T18:26:40.910Z,22.50
2023-01-01T18:29:09.055Z,23.08
2023-01-01T18:31:37.244Z,24.10
2023-01-01T18:34:06.967Z,28.85
2023-01-01T18:36:36.558Z,24.77
2023-01-01T18:39:14.972Z,21.38
2023-01-01T18:42:03.778Z,15.70
2023-01-01T18:44:33.333Z,22.05
2023-01-01T18:47:12.917Z,21.30
2023-01-01T18:49:49.606Z,26.23
2023-01-01T18:52:26.812Z,25.23
2023-01-01T18:55:04.247Z,20.75
2023-01-01T18:57:32.827Z,16.23
2023-01-01T19:00:04.709Z,19.27
2023-01-01T19:02:38.652Z,19.77
2023-01-01T19:05:19.453Z,25.25
2023-01-01T19:07:52.894Z,18.52
2023-01-01T19:10:21.052Z,25.70
2023-01-01T19:12:54.639Z,23.27
2023-01-01T19:17:50.840Z,22.15
2023-01-01T19:20:21.017Z,18.35
2023-01-01T19:22:53.014Z,22.27
2023-01-01T19:25:36.696Z,22.27
2023-01-01T19:28:32.359Z,22.27
2023-01-01T19:31:01.421Z,15.85
2023-01-01T19:33:30.297Z,15.30
2023-01-01T19:35:58.723Z,23.67
2023-01-01T19:38:27.978Z,16.27
2023-01-01T19:40:56.125Z,19.10
2023-01-01T19:43:24.321Z,22.15
2023-01-01T19:45:52.390Z,20.20
2023-01-01T19:48:20.551Z,17.50
2023-01-01T19:50:48.695Z,17.92
2023-01-01T19:53:17.038Z,22.95
2023-01-01T19:55:46.896Z,23.75
2023-01-01T19:58:14.981Z,27.02
2023-01-01T20:00:43.304Z,18.63
2023-01-01T20:03:51.448Z,22.02
2023-01-01T20:06:02.185Z,25.05
2023-01-01T20:08:31.313Z,10.25
2023-01-01T20:11:01.232Z,14.70
2023-01-01T20:13:29.120Z,24.52
2023-01-01T20:15:58.289Z,14.38
2023-01-01T20:18:26.529Z,11.55
2023-01-01T20:21:12.382Z,15.98
2023-01-01T20:23:41.732Z,19.95
2023-01-01T20:26:11.441Z,22.55
2023-01-01T20:28:57.089Z,20.65
2023-01-01T20:31:25.045Z,22.77
2023-01-01T20:33:53.414Z,18.45
2023-01-01T20:36:38.789Z,20.20
2023-01-01T20:39:06.831Z,23.95
2023-01-01T20:41:36.490Z,23.02
2023-01-01T20:44:05.130Z,23.45
2023-01-01T20:46:36.426Z,22.02
2023-01-01T20:49:04.966Z,12.48
2023-01-01T20:51:33.356Z,16.70
2023-01-01T20:54:01.455Z,15.75
2023-01-01T20:56:31.757Z,8.52
2023-01-01T20:59:17.899Z,14.75
2023-01-01T21:01:50.963Z,10.55
2023-01-01T21:04:19.181Z,13.10
2023-01-01T21:06:47.735Z,12.45
2023-01-01T21:09:15.726Z,14.43
2023-01-01T21:11:43.954Z,11.57
2023-01-01T21:14:13.329Z,9.13
2023-01-01T21:16:44.563Z,17.05
2023-01-01T21:19:12.766Z,13.23
2023-01-01T21:21:45.000Z,11.55
2023-01-01T21:24:21.063Z,11.88
2023-01-01T21:26:50.257Z,7.85
2023-01-01T21:29:21.631Z,7.30
2023-01-01T21:31:54.144Z,9.63
2023-01-01T21:34:31.832Z,9.20
2023-01-01T21:37:03.165Z,13.68
2023-01-01T21:39:31.791Z,21.05
2023-01-01T21:42:06.555Z,12.25
2023-01-01T21:44:35.986Z,11.38
2023-01-01T21:47:06.980Z,14.75
2023-01-01T21:49:37.307Z,10.77
2023-01-01T21:52:16.557Z,11.57
2023-01-01T21:54:48.120Z,23.00
2023-01-01T21:57:18.832Z,15.75
2023-01-01T21:59:48.349Z,11.23
2023-01-01T22:02:33.038Z,12.80
2023-01-01T22:05:03.167Z,10.35
2023-01-01T22:10:25.127Z,12.13
2023-01-01T22:12:57.292Z,18.75
2023-01-01T22:15:41.303Z,23.10
2023-01-01T22:18:30.992Z,16.05
2023-01-01T22:21:02.697Z,14.32
2023-01-01T22:23:38.385Z,17.63
2023-01-01T22:26:15.838Z,15.32
2023-01-01T22:28:46.023Z,23.95
2023-01-01T22:31:20.361Z,17.75
2023-01-01T22:33:49.520Z,13.30
2023-01-01T22:36:21.830Z,13.32
2023-01-01T22:38:49.772Z,12.02
2023-01-01T22:41:17.623Z,12.52
2023-01-01T22:43:48.176Z,13.27
2023-01-01T22:46:27.280Z,15.02
2023-01-01T22:48:58.159Z,17.38
2023-01-01T22:51:29.624Z,14.43
2023-01-01T22:53:57.571Z,16.75
2023-01-01T22:56:25.904Z,17.38
2023-01-01T22:58:57.261Z,15.32
2023-01-01T23:01:27.144Z,13.95
2023-01-01T23:03:55.133Z,12.63
2023-01-01T23:06:23.362Z,10.98
2023-01-01T23:08:52.319Z,14.05
2023-01-01T23:11:20.870Z,12.00
2023-01-01T23:14:08.615Z,8.10
2023-01-01T23:16:37.891Z,11.77
2023-01-01T23:19:06.457Z,15.23
2023-01-01T23:21:36.592Z,14.55
2023-01-01T23:24:07.965Z,11.93
2023-01-01T23:26:35.887Z,12.35
2023-01-01T23:29:04.556Z,10.45
2023-01-01T23:31:34.659Z,14.30
2023-01-01T23:34:04.157Z,13.60
2023-01-01T23:36:32.687Z,6.97
2023-01-01T23:39:00.552Z,10.43
2023-01-01T23:41:28.524Z,11.25
2023-01-01T23:43:56.398Z,13.95
2023-01-01T23:46:24.480Z,9.45
2023-01-01T23:48:54.298Z,12.48
2023-01-01T23:51:23.710Z,9.02
2023-01-01T23:53:51.559Z,7.13
2023-01-01T23:56:19.572Z,7.25
2023-01-01T23:58:47.418Z,9.73
